Time;durP1;ratioP1;P1;durP2;ratioP2;P2;SDS_P1;SDS_P2;PMS_P1;PMS_P2;Temp;Humidity;BMP_temperature;BMP_pressure;BME280_temperature;BME280_humidity;BME280_pressure;Samples;Min_cycle;Max_cycle;Signal;HPM_P1;HPM_P2
2021/05/04 00:00:16;;;;;;;11.80;10.70;;;;;;;;;;5001211;28;20195;-85
2021/05/04 00:02:45;;;;;;;10.90;9.48;;;;;;;;;;5001816;28;20471;-84
2021/05/04 00:05:12;;;;;;;11.77;10.70;;;;;;;;;;5017851;28;20160;-85
2021/05/04 00:07:38;;;;;;;15.45;13.95;;;;;;;;;;5017927;28;20477;-84
2021/05/04 00:10:04;;;;;;;9.25;8.43;;;;;;;;;;5017834;28;20156;-84
2021/05/04 00:12:31;;;;;;;11.77;10.68;;;;;;;;;;5019154;28;20196;-85
2021/05/04 00:14:57;;;;;;;9.90;9.00;;;;;;;;;;5018116;28;20180;-83
2021/05/04 00:17:23;;;;;;;11.32;10.15;;;;;;;;;;5025281;28;20194;-82
2021/05/04 00:19:49;;;;;;;9.30;8.57;;;;;;;;;;5015328;28;20176;-84
2021/05/04 00:22:15;;;;;;;9.65;8.90;;;;;;;;;;5014655;28;20203;-82
2021/05/04 00:25:03;;;;;;;9.40;8.70;;;;;;;;;;5023302;28;20806;-84
2021/05/04 00:27:28;;;;;;;9.85;9.07;;;;;;;;;;5021776;28;20502;-84
2021/05/04 00:29:54;;;;;;;8.93;8.25;;;;;;;;;;5018220;28;20190;-83
2021/05/04 00:32:24;;;;;;;8.95;8.35;;;;;;;;;;5001490;28;20223;-83
2021/05/04 00:34:53;;;;;;;9.55;8.75;;;;;;;;;;5002640;28;20172;-83
2021/05/04 00:37:19;;;;;;;9.73;8.88;;;;;;;;;;5021182;28;20200;-84
2021/05/04 00:39:45;;;;;;;8.50;7.82;;;;;;;;;;5030633;28;20222;-84
2021/05/04 00:42:11;;;;;;;7.63;7.10;;;;;;;;;;5030189;28;20196;-84
2021/05/04 00:44:37;;;;;;;8.13;7.40;;;;;;;;;;5022603;28;20251;-84
2021/05/04 00:47:03;;;;;;;8.02;7.43;;;;;;;;;;5019563;28;20418;-84
2021/05/04 00:49:29;;;;;;;8.30;7.53;;;;;;;;;;5022042;28;20514;-84
2021/05/04 00:51:55;;;;;;;8.50;7.80;;;;;;;;;;5021896;28;20188;-84
2021/05/04 00:54:23;;;;;;;8.00;7.30;;;;;;;;;;5020478;28;20176;-85
2021/05/04 00:56:52;;;;;;;8.07;7.38;;;;;;;;;;5022536;28;20168;-84
2021/05/04 00:59:22;;;;;;;7.55;7.05;;;;;;;;;;5004791;28;20274;-84
2021/05/04 01:01:49;;;;;;;8.20;6.82;;;;;;;;;;5020709;28;20200;-84
2021/05/04 01:04:15;;;;;;;8.43;7.70;;;;;;;;;;5023347;28;20171;-84
2021/05/04 01:06:41;;;;;;;7.10;6.50;;;;;;;;;;5022140;28;20442;-83
2021/05/04 01:09:10;;;;;;;7.35;6.75;;;;;;;;;;5021366;28;20164;-84
2021/05/04 01:11:36;;;;;;;11.00;8.35;;;;;;;;;;5020889;28;20196;-84
2021/05/04 01:14:02;;;;;;;9.48;6.70;;;;;;;;;;5020631;28;20176;-85
2021/05/04 01:16:28;;;;;;;8.13;7.53;;;;;;;;;;5004465;28;20195;-84
2021/05/04 01:18:54;;;;;;;7.32;6.72;;;;;;;;;;5021112;28;20172;-84
2021/05/04 01:21:20;;;;;;;7.20;6.65;;;;;;;;;;5028701;28;20192;-82
2021/05/04 01:23:47;;;;;;;8.13;5.90;;;;;;;;;;5032955;28;20187;-82
2021/05/04 01:26:13;;;;;;;10.07;6.70;;;;;;;;;;5034848;28;20231;-82
2021/05/04 01:28:39;;;;;;;6.68;6.18;;;;;;;;;;5035683;28;20172;-82
2021/05/04 01:31:07;;;;;;;6.55;6.05;;;;;;;;;;5035642;28;20172;-81
2021/05/04 01:33:33;;;;;;;6.53;5.85;;;;;;;;;;5036669;28;20184;-82
2021/05/04 01:36:01;;;;;;;9.68;6.65;;;;;;;;;;5040791;28;20171;-85
2021/05/04 01:38:32;;;;;;;6.30;5.65;;;;;;;;;;5024095;28;20164;-84
2021/05/04 01:40:58;;;;;;;5.40;5.00;;;;;;;;;;5040019;28;20160;-83
2021/05/04 01:43:24;;;;;;;6.32;5.93;;;;;;;;;;5026458;28;20196;-85
2021/05/04 01:45:50;;;;;;;6.68;5.80;;;;;;;;;;5008273;28;20255;-84
2021/05/04 01:48:17;;;;;;;6.25;5.75;;;;;;;;;;5022356;28;20174;-83
2021/05/04 01:50:43;;;;;;;6.93;6.32;;;;;;;;;;5024443;28;20172;-83
2021/05/04 01:53:09;;;;;;;5.97;5.55;;;;;;;;;;5025451;28;20188;-83
2021/05/04 01:55:38;;;;;;;6.38;5.93;;;;;;;;;;5030964;28;20164;-82
2021/05/04 01:58:07;;;;;;;5.93;5.53;;;;;;;;;;5033903;28;20172;-83
2021/05/04 02:00:33;;;;;;;6.28;5.88;;;;;;;;;;5034615;28;20172;-83
2021/05/04 02:02:59;;;;;;;6.40;5.82;;;;;;;;;;5020231;28;20196;-85
2021/05/04 02:05:25;;;;;;;5.60;5.10;;;;;;;;;;5004876;28;20552;-84
2021/05/04 02:07:51;;;;;;;6.22;5.70;;;;;;;;;;5023199;28;20156;-85
2021/05/04 02:10:17;;;;;;;5.87;5.47;;;;;;;;;;5024779;28;20183;-85
2021/05/04 02:12:43;;;;;;;7.30;6.70;;;;;;;;;;5021072;28;20433;-85
2021/05/04 02:15:10;;;;;;;6.63;6.03;;;;;;;;;;5022202;28;20172;-86
2021/05/04 02:17:36;;;;;;;9.00;6.88;;;;;;;;;;5027465;28;20186;-84
2021/05/04 02:20:03;;;;;;;7.28;5.88;;;;;;;;;;5027138;28;20188;-84
2021/05/04 02:22:32;;;;;;;6.72;6.20;;;;;;;;;;5029913;28;20206;-83
2021/05/04 02:25:01;;;;;;;7.35;6.22;;;;;;;;;;5013844;28;20168;-83
2021/05/04 02:27:30;;;;;;;8.52;7.45;;;;;;;;;;5029467;28;20680;-84
2021/05/04 02:30:07;;;;;;;6.20;5.80;;;;;;;;;;5010135;28;20179;-85
2021/05/04 02:32:38;;;;;;;6.53;6.03;;;;;;;;;;5025608;28;20263;-84
2021/05/04 02:35:05;;;;;;;7.10;6.50;;;;;;;;;;5008495;28;20184;-84
2021/05/04 02:37:34;;;;;;;7.40;6.70;;;;;;;;;;5021623;28;20172;-84
2021/05/04 02:40:00;;;;;;;7.13;6.43;;;;;;;;;;5002881;28;20613;-84
2021/05/04 02:42:27;;;;;;;6.15;5.70;;;;;;;;;;5019680;28;20322;-83
2021/05/04 02:44:53;;;;;;;6.97;6.47;;;;;;;;;;5020922;28;20168;-84
2021/05/04 02:47:19;;;;;;;6.38;5.88;;;;;;;;;;5020392;28;20438;-85
2021/05/04 02:49:46;;;;;;;6.93;6.32;;;;;;;;;;5020318;28;20195;-85
2021/05/04 02:52:12;;;;;;;6.05;5.63;;;;;;;;;;5022138;28;20195;-82
2021/05/04 02:54:40;;;;;;;6.68;6.07;;;;;;;;;;5004188;28;20464;-84
2021/05/04 02:57:06;;;;;;;8.60;7.75;;;;;;;;;;5019341;28;20267;-83
2021/05/04 02:59:32;;;;;;;6.72;6.22;;;;;;;;;;5019525;28;20234;-84
2021/05/04 03:02:00;;;;;;;7.40;6.70;;;;;;;;;;5003498;28;20630;-84
2021/05/04 03:04:26;;;;;;;6.80;6.20;;;;;;;;;;5019929;28;20168;-84
2021/05/04 03:06:54;;;;;;;6.75;6.22;;;;;;;;;;4999887;28;20199;-83
2021/05/04 03:09:20;;;;;;;6.72;6.10;;;;;;;;;;5017766;28;20172;-81
2021/05/04 03:11:46;;;;;;;7.13;6.53;;;;;;;;;;5016897;28;20196;-81
2021/05/04 03:14:13;;;;;;;7.18;6.68;;;;;;;;;;5036523;28;20171;-82
2021/05/04 03:16:39;;;;;;;8.27;7.28;;;;;;;;;;5023763;28;20183;-84
2021/05/04 03:19:05;;;;;;;6.30;5.80;;;;;;;;;;5029565;28;20174;-83
2021/05/04 03:21:31;;;;;;;7.60;6.88;;;;;;;;;;5003922;28;20242;-84
2021/05/04 03:23:57;;;;;;;6.47;5.95;;;;;;;;;;5025351;28;20172;-85
2021/05/04 03:26:23;;;;;;;7.90;7.20;;;;;;;;;;5011584;28;20175;-84
2021/05/04 03:28:52;;;;;;;7.75;6.97;;;;;;;;;;5021389;28;20172;-82
2021/05/04 03:31:21;;;;;;;8.02;7.32;;;;;;;;;;5022777;28;20616;-83
2021/05/04 03:33:49;;;;;;;7.60;6.90;;;;;;;;;;5034354;28;20224;-84
2021/05/04 03:36:15;;;;;;;7.55;6.90;;;;;;;;;;5037672;28;20407;-83
2021/05/04 03:38:44;;;;;;;8.93;8.05;;;;;;;;;;5018846;28;20180;-84
2021/05/04 03:41:22;;;;;;;7.38;6.78;;;;;;;;;;5017769;28;20191;-80
2021/05/04 03:43:48;;;;;;;8.02;7.45;;;;;;;;;;5004537;28;20545;-85
2021/05/04 03:46:14;;;;;;;8.52;7.72;;;;;;;;;;5023168;28;20203;-85
2021/05/04 03:48:41;;;;;;;8.98;8.27;;;;;;;;;;5025284;28;20223;-83
2021/05/04 03:51:07;;;;;;;10.60;7.50;;;;;;;;;;5019445;28;20179;-84
2021/05/04 03:53:37;;;;;;;6.50;5.97;;;;;;;;;;5019491;28;20187;-84
2021/05/04 03:56:04;;;;;;;7.00;6.40;;;;;;;;;;5020458;28;20191;-85
2021/05/04 03:58:34;;;;;;;7.93;7.30;;;;;;;;;;5019264;28;20171;-85
2021/05/04 04:01:00;;;;;;;9.05;8.25;;;;;;;;;;5019769;28;20411;-85
2021/05/04 04:03:26;;;;;;;8.03;7.33;;;;;;;;;;5018766;28;20256;-86
2021/05/04 04:05:53;;;;;;;7.13;6.57;;;;;;;;;;5019318;28;20415;-86
2021/05/04 04:08:20;;;;;;;7.95;7.18;;;;;;;;;;5020063;28;20775;-86
2021/05/04 04:10:46;;;;;;;11.93;8.60;;;;;;;;;;5022021;28;20194;-84
2021/05/04 04:13:13;;;;;;;6.95;6.45;;;;;;;;;;5024852;28;20447;-84
2021/05/04 04:15:45;;;;;;;7.43;6.83;;;;;;;;;;5021300;28;20172;-84
2021/05/04 04:18:11;;;;;;;8.70;7.53;;;;;;;;;;5004062;28;20951;-84
2021/05/04 04:20:38;;;;;;;6.93;6.32;;;;;;;;;;5019555;28;20843;-82
2021/05/04 04:23:04;;;;;;;6.90;6.40;;;;;;;;;;5006106;28;20218;-84
2021/05/04 04:25:30;;;;;;;7.05;6.45;;;;;;;;;;5007139;28;20468;-84
2021/05/04 04:27:56;;;;;;;8.73;7.87;;;;;;;;;;5023541;28;20263;-85
2021/05/04 04:30:24;;;;;;;7.03;6.50;;;;;;;;;;5024102;28;20403;-86
2021/05/04 05:51:14;;;;;;;7.70;7.10;;;;;;;;;;5003788;28;20456;-86
2021/05/04 05:54:09;;;;;;;9.23;8.30;;;;;;;;;;4983602;28;20433;-86
2021/05/04 06:00:51;;;;;;;;;;;;;;;;;;;;;
2021/05/04 06:03:34;;;;;;;7.57;6.97;;;;;;;;;;5329183;23;20490;-84
2021/05/04 06:06:41;;;;;;;8.27;7.57;;;;;;;;;;5035915;28;20453;-85
2021/05/04 06:09:16;;;;;;;9.07;8.17;;;;;;;;;;5027799;28;20435;-84
2021/05/04 06:11:51;;;;;;;8.33;7.50;;;;;;;;;;5021543;28;20433;-84
2021/05/04 06:14:19;;;;;;;7.00;6.50;;;;;;;;;;5040506;28;20474;-86
2021/05/04 06:16:58;;;;;;;;;;;;;;;;;;;;;
2021/05/04 06:19:47;;;;;;;7.43;5.93;;;;;;;;;;5051488;28;20488;-86
2021/05/04 06:22:16;;;;;;;8.47;6.80;;;;;;;;;;5031215;28;20486;-88
2021/05/04 06:24:42;;;;;;;6.03;5.50;;;;;;;;;;5029173;28;20421;-87
2021/05/04 06:27:09;;;;;;;10.93;6.80;;;;;;;;;;5030180;28;20420;-88
2021/05/04 06:29:38;;;;;;;7.90;6.97;;;;;;;;;;5034556;28;20454;-88
2021/05/04 06:32:10;;;;;;;7.70;6.77;;;;;;;;;;5027946;28;20460;-85
2021/05/04 06:34:37;;;;;;;7.30;6.33;;;;;;;;;;5024728;28;20402;-86
2021/05/04 06:37:04;;;;;;;5.97;5.37;;;;;;;;;;5026774;28;20521;-88
2021/05/04 06:39:30;;;;;;;5.97;5.47;;;;;;;;;;5024716;28;20432;-86
2021/05/04 06:41:57;;;;;;;8.90;6.97;;;;;;;;;;5028006;28;20451;-86
2021/05/04 06:44:24;;;;;;;8.50;5.97;;;;;;;;;;5031710;28;20453;-85
2021/05/04 06:46:53;;;;;;;6.63;5.90;;;;;;;;;;5049665;28;20418;-84
2021/05/04 06:49:20;;;;;;;7.37;6.57;;;;;;;;;;5036484;28;20411;-85
2021/05/04 06:51:46;;;;;;;7.30;6.57;;;;;;;;;;5036903;28;20962;-85
2021/05/04 06:54:15;;;;;;;11.27;9.10;;;;;;;;;;5038434;28;20409;-85
2021/05/04 06:56:42;;;;;;;8.53;7.67;;;;;;;;;;5035397;28;20438;-88
2021/05/04 06:59:12;;;;;;;8.80;5.70;;;;;;;;;;5029608;28;20417;-88
2021/05/04 07:01:39;;;;;;;6.57;5.97;;;;;;;;;;5026869;28;20451;-86
2021/05/04 07:04:11;;;;;;;6.47;5.80;;;;;;;;;;5039401;28;20436;-87
2021/05/04 07:06:38;;;;;;;10.20;6.70;;;;;;;;;;5042434;28;20397;-86
2021/05/04 07:09:05;;;;;;;7.80;6.23;;;;;;;;;;5025005;28;20765;-86
2021/05/04 07:11:32;;;;;;;5.37;4.97;;;;;;;;;;5024109;28;20419;-86
2021/05/04 07:13:58;;;;;;;7.60;6.50;;;;;;;;;;5028740;28;20435;-84
2021/05/04 07:16:25;;;;;;;8.20;5.53;;;;;;;;;;5031425;28;20918;-86
2021/05/04 07:18:54;;;;;;;5.40;5.00;;;;;;;;;;5023393;28;20430;-86
2021/05/04 07:21:20;;;;;;;8.93;5.67;;;;;;;;;;5040894;28;20749;-87
2021/05/04 07:23:49;;;;;;;6.20;4.93;;;;;;;;;;5026634;28;20427;-87
2021/05/04 07:26:16;;;;;;;6.33;5.83;;;;;;;;;;5022569;28;20446;-85
2021/05/04 07:28:43;;;;;;;5.57;5.07;;;;;;;;;;5024852;28;20392;-86
2021/05/04 07:31:11;;;;;;;7.23;5.20;;;;;;;;;;5039526;28;20415;-86
2021/05/04 07:33:40;;;;;;;6.37;5.87;;;;;;;;;;5040003;28;20795;-87
2021/05/04 07:36:06;;;;;;;7.83;6.10;;;;;;;;;;5023154;28;20486;-85
2021/05/04 07:38:33;;;;;;;6.53;5.87;;;;;;;;;;5023502;28;20406;-87
2021/05/04 07:40:59;;;;;;;5.70;5.20;;;;;;;;;;5023787;28;20418;-87
2021/05/04 07:43:25;;;;;;;9.27;6.53;;;;;;;;;;5037001;28;20454;-87
2021/05/04 07:45:51;;;;;;;5.70;5.20;;;;;;;;;;5022334;28;20425;-87
2021/05/04 07:48:18;;;;;;;7.10;5.50;;;;;;;;;;5023966;28;20395;-86
2021/05/04 07:50:44;;;;;;;6.03;5.47;;;;;;;;;;5022146;28;20759;-87
2021/05/04 07:53:11;;;;;;;6.63;6.00;;;;;;;;;;5039873;28;20441;-86
2021/05/04 07:55:37;;;;;;;10.63;6.50;;;;;;;;;;5021658;28;20752;-85
2021/05/04 07:58:04;;;;;;;120.80;38.33;;;;;;;;;;5024571;28;20439;-87
2021/05/04 08:00:30;;;;;;;209.87;56.37;;;;;;;;;;5022842;28;20410;-86
2021/05/04 08:03:02;;;;;;;60.37;19.30;;;;;;;;;;5022110;28;20820;-85
2021/05/04 08:05:34;;;;;;;39.63;12.00;;;;;;;;;;5008967;28;20421;-86
2021/05/04 08:08:18;;;;;;;52.90;15.00;;;;;;;;;;5033390;28;20394;-87
2021/05/04 08:10:45;;;;;;;33.23;12.53;;;;;;;;;;5025631;28;20422;-86
2021/05/04 08:13:12;;;;;;;13.30;7.93;;;;;;;;;;5025509;28;20435;-86
2021/05/04 08:15:39;;;;;;;11.63;5.90;;;;;;;;;;5023506;28;20448;-87
2021/05/04 08:18:11;;;;;;;16.00;8.90;;;;;;;;;;5038593;28;20454;-85
2021/05/04 08:20:47;;;;;;;6.70;5.90;;;;;;;;;;5023612;28;20430;-84
2021/05/04 08:23:13;;;;;;;6.53;6.03;;;;;;;;;;5023148;28;20457;-88
2021/05/04 08:25:42;;;;;;;8.77;6.93;;;;;;;;;;5023129;28;20518;-85
2021/05/04 08:28:11;;;;;;;9.90;7.17;;;;;;;;;;5022360;28;20526;-84
2021/05/04 08:30:38;;;;;;;10.27;9.57;;;;;;;;;;5022792;28;20424;-87
2021/05/04 08:33:04;;;;;;;7.80;7.30;;;;;;;;;;5024222;28;20455;-87
2021/05/04 08:35:31;;;;;;;5.57;5.07;;;;;;;;;;5051531;28;20474;-86
2021/05/04 08:37:57;;;;;;;5.00;4.50;;;;;;;;;;5035562;28;20417;-85
2021/05/04 08:40:29;;;;;;;6.23;5.80;;;;;;;;;;5028609;28;20947;-87
2021/05/04 08:42:58;;;;;;;8.77;8.03;;;;;;;;;;5025495;28;20464;-87
2021/05/04 08:45:34;;;;;;;6.10;5.60;;;;;;;;;;5038418;28;20502;-86
2021/05/04 08:48:04;;;;;;;4.60;4.20;;;;;;;;;;5023324;28;20411;-86
2021/05/04 08:50:34;;;;;;;4.87;4.47;;;;;;;;;;5024207;28;20473;-87
2021/05/04 08:53:05;;;;;;;7.00;4.87;;;;;;;;;;5026188;28;20447;-88
2021/05/04 08:55:31;;;;;;;8.50;6.60;;;;;;;;;;5023889;28;20425;-86
2021/05/04 08:57:58;;;;;;;5.47;5.07;;;;;;;;;;5026575;28;20450;-87
2021/05/04 09:00:24;;;;;;;5.00;4.60;;;;;;;;;;5024315;28;20580;-86
2021/05/04 09:03:03;;;;;;;6.00;5.50;;;;;;;;;;5024383;28;20460;-87
2021/05/04 09:05:40;;;;;;;7.73;4.83;;;;;;;;;;5028144;28;20415;-86
2021/05/04 09:08:10;;;;;;;5.43;4.33;;;;;;;;;;5029185;28;20851;-85
2021/05/04 09:13:20;;;;;;;6.80;5.63;;;;;;;;;;5031223;28;20572;-88
2021/05/04 09:21:09;;;;;;;4.33;4.03;;;;;;;;;;5049260;28;20438;-84
2021/05/04 09:23:43;;;;;;;5.97;5.57;;;;;;;;;;5054262;28;20508;-87
2021/05/04 09:26:17;;;;;;;5.27;4.73;;;;;;;;;;5045923;28;20447;-87
2021/05/04 09:28:53;;;;;;;5.00;4.43;;;;;;;;;;5044569;28;20422;-86
2021/05/04 09:31:25;;;;;;;7.57;5.80;;;;;;;;;;5029932;28;20555;-86
2021/05/04 09:33:52;;;;;;;70.63;57.27;;;;;;;;;;5031101;28;20456;-87
2021/05/04 09:36:37;;;;;;;4.37;3.97;;;;;;;;;;5030054;28;20395;-88
2021/05/04 09:39:04;;;;;;;7.17;6.77;;;;;;;;;;5033478;28;20425;-88
2021/05/04 09:41:31;;;;;;;5.90;5.30;;;;;;;;;;5039027;28;20454;-88
2021/05/04 09:43:57;;;;;;;6.47;4.17;;;;;;;;;;5055952;28;20482;-87
2021/05/04 09:46:44;;;;;;;3.80;3.30;;;;;;;;;;5039616;28;20426;-87
2021/05/04 09:49:29;;;;;;;4.47;4.07;;;;;;;;;;5039823;28;20419;-87
2021/05/04 09:52:16;;;;;;;18.40;6.83;;;;;;;;;;5038665;28;20439;-85
2021/05/04 09:54:46;;;;;;;43.43;14.43;;;;;;;;;;5055637;28;20414;-88
2021/05/04 09:57:31;;;;;;;12.57;6.70;;;;;;;;;;5039232;28;20449;-87
2021/05/04 09:59:58;;;;;;;11.47;6.53;;;;;;;;;;5038333;28;20416;-87
2021/05/04 10:02:28;;;;;;;4.13;3.73;;;;;;;;;;5038536;28;20496;-88
2021/05/04 10:04:58;;;;;;;8.77;5.63;;;;;;;;;;5038287;28;20438;-87
2021/05/04 10:07:25;;;;;;;6.00;3.70;;;;;;;;;;5038475;28;20421;-87
2021/05/04 10:09:52;;;;;;;27.23;12.40;;;;;;;;;;5054984;28;20421;-88
2021/05/04 10:12:21;;;;;;;13.90;7.20;;;;;;;;;;5037879;28;20487;-88
2021/05/04 10:15:04;;;;;;;17.03;8.60;;;;;;;;;;5053730;28;20481;-87
2021/05/04 10:17:34;;;;;;;10.43;6.43;;;;;;;;;;5031645;28;20434;-86
2021/05/04 10:20:06;;;;;;;9.30;5.70;;;;;;;;;;5044545;28;20410;-87
2021/05/04 10:22:35;;;;;;;14.17;7.20;;;;;;;;;;5028350;28;20465;-86
2021/05/04 10:25:02;;;;;;;21.00;9.50;;;;;;;;;;5028852;28;20441;-87
2021/05/04 10:27:29;;;;;;;20.83;12.57;;;;;;;;;;5030271;28;20415;-86
2021/05/04 10:30:07;;;;;;;10.73;7.73;;;;;;;;;;5014499;28;20409;-86
2021/05/04 10:32:49;;;;;;;6.10;5.50;;;;;;;;;;5013378;28;20453;-87
2021/05/04 10:35:34;;;;;;;3.53;3.17;;;;;;;;;;5029213;28;20601;-87
2021/05/04 10:38:12;;;;;;;4.80;3.63;;;;;;;;;;5043003;28;20418;-86
2021/05/04 10:41:01;;;;;;;7.03;3.07;;;;;;;;;;5028543;28;20413;-88
2021/05/04 10:43:35;;;;;;;4.50;4.10;;;;;;;;;;5043913;28;20485;-89
2021/05/04 10:46:09;;;;;;;3.80;3.07;;;;;;;;;;5029805;28;20407;-85
2021/05/04 10:48:38;;;;;;;6.40;3.43;;;;;;;;;;5028579;28;20409;-87
2021/05/04 10:51:15;;;;;;;4.07;2.20;;;;;;;;;;5046848;28;20407;-87
2021/05/04 10:54:02;;;;;;;5.93;2.10;;;;;;;;;;5048134;28;20443;-88
2021/05/04 10:56:37;;;;;;;4.23;3.37;;;;;;;;;;5045831;28;20394;-85
2021/05/04 10:59:08;;;;;;;6.03;2.50;;;;;;;;;;5028076;28;20414;-88
2021/05/04 11:01:36;;;;;;;4.77;2.77;;;;;;;;;;5044627;28;20403;-88
2021/05/04 11:04:16;;;;;;;9.33;3.17;;;;;;;;;;5030275;28;20426;-87
2021/05/04 11:06:52;;;;;;;2.00;1.80;;;;;;;;;;5029465;28;20621;-89
2021/05/04 11:09:30;;;;;;;6.30;2.37;;;;;;;;;;5154886;23;20465;-86
2021/05/04 11:12:38;;;;;;;6.53;5.50;;;;;;;;;;5033867;28;20438;-87
2021/05/04 11:15:34;;;;;;;2.50;2.30;;;;;;;;;;5032983;28;20416;-88
2021/05/04 11:18:57;;;;;;;2.70;2.10;;;;;;;;;;5030639;28;20396;-87
2021/05/04 11:22:03;;;;;;;3.43;2.20;;;;;;;;;;5028896;28;20379;-88
2021/05/04 11:25:07;;;;;;;3.50;2.30;;;;;;;;;;5031152;28;20796;-88
2021/05/04 11:28:03;;;;;;;7.33;2.20;;;;;;;;;;5031115;28;20407;-89
2021/05/04 11:30:47;;;;;;;4.20;2.90;;;;;;;;;;5027113;28;20406;-88
2021/05/04 11:33:31;;;;;;;6.50;2.33;;;;;;;;;;5025846;28;20431;-88
2021/05/04 11:36:41;;;;;;;5.97;2.03;;;;;;;;;;5026770;28;20418;-86
2021/05/04 11:39:11;;;;;;;7.50;3.10;;;;;;;;;;5025655;28;20412;-86
2021/05/04 11:41:38;;;;;;;6.07;2.40;;;;;;;;;;5011173;28;20468;-86
2021/05/04 11:44:26;;;;;;;3.57;3.37;;;;;;;;;;5030653;28;20410;-89
2021/05/04 11:47:13;;;;;;;11.70;6.53;;;;;;;;;;5034516;28;20399;-87
2021/05/04 11:49:49;;;;;;;50.37;20.70;;;;;;;;;;5031425;28;20914;-87
2021/05/04 11:52:28;;;;;;;19.10;8.00;;;;;;;;;;5013489;28;20435;-87
2021/05/04 11:55:03;;;;;;;33.60;16.40;;;;;;;;;;5035707;28;20458;-86
2021/05/04 11:57:36;;;;;;;18.10;8.50;;;;;;;;;;5017642;28;20913;-88
2021/05/04 12:00:17;;;;;;;50.87;20.87;;;;;;;;;;5034470;28;20407;-88
2021/05/04 12:22:36;;;;;;;5.80;2.90;;;;;;;;;;4963049;29;21016;-87
2021/05/04 12:26:05;;;;;;;9.93;4.70;;;;;;;;;;4961795;29;20440;-87
2021/05/04 12:29:11;;;;;;;43.73;19.50;;;;;;;;;;4962325;29;20417;-86
2021/05/04 12:39:44;;;;;;;5.47;4.97;;;;;;;;;;4906500;29;20543;-88
2021/05/04 12:42:36;;;;;;;3.73;2.53;;;;;;;;;;4850532;29;20464;-86
2021/05/04 20:12:24;;;;;;;2.80;2.50;;;;;;;;;;5020126;28;20430;-85
2021/05/04 20:14:55;;;;;;;2.70;1.90;;;;;;;;;;5003113;28;20414;-84
2021/05/04 20:17:23;;;;;;;10.20;6.73;;;;;;;;;;5004679;28;20443;-84
2021/05/04 20:19:57;;;;;;;3.90;3.50;;;;;;;;;;5017450;28;20409;-82
2021/05/04 20:22:27;;;;;;;6.47;2.57;;;;;;;;;;5001469;28;20455;-87
2021/05/04 20:24:55;;;;;;;2.23;1.90;;;;;;;;;;5017849;28;20508;-85
2021/05/04 20:27:25;;;;;;;7.73;2.93;;;;;;;;;;5001216;28;20416;-84
2021/05/04 20:29:51;;;;;;;6.97;2.17;;;;;;;;;;5003040;28;20508;-84
2021/05/04 20:32:20;;;;;;;4.10;2.20;;;;;;;;;;5015700;28;20420;-84
2021/05/04 20:34:50;;;;;;;4.53;2.77;;;;;;;;;;5016837;28;20441;-84
2021/05/04 20:37:17;;;;;;;3.47;2.10;;;;;;;;;;5016244;28;20411;-84
2021/05/04 20:39:43;;;;;;;4.00;2.10;;;;;;;;;;5000509;28;20424;-86
2021/05/04 20:42:10;;;;;;;4.73;2.87;;;;;;;;;;5004688;28;20871;-84
2021/05/04 20:44:38;;;;;;;5.10;2.00;;;;;;;;;;5018623;28;20463;-83
2021/05/04 20:47:04;;;;;;;3.77;1.60;;;;;;;;;;5000886;28;20422;-85
2021/05/04 20:49:33;;;;;;;3.60;1.80;;;;;;;;;;5003535;28;20399;-84
2021/05/04 20:51:59;;;;;;;2.70;2.17;;;;;;;;;;5002211;28;20430;-84
2021/05/04 20:54:31;;;;;;;4.87;2.50;;;;;;;;;;5018342;28;20501;-85
2021/05/04 20:57:06;;;;;;;2.70;1.90;;;;;;;;;;5017837;28;20402;-85
2021/05/04 20:59:32;;;;;;;5.03;2.40;;;;;;;;;;5001635;28;20415;-84
2021/05/04 21:02:01;;;;;;;4.83;1.73;;;;;;;;;;4999672;28;20486;-84
2021/05/04 21:04:30;;;;;;;2.33;1.60;;;;;;;;;;5003087;28;20428;-85
2021/05/04 21:07:00;;;;;;;4.30;2.00;;;;;;;;;;5019737;28;20384;-82
2021/05/04 21:09:37;;;;;;;5.10;2.17;;;;;;;;;;5020042;28;20416;-84
2021/05/04 21:12:16;;;;;;;2.33;1.60;;;;;;;;;;5003500;28;20540;-84
2021/05/04 21:14:43;;;;;;;2.60;2.00;;;;;;;;;;5002484;28;20865;-84
2021/05/04 21:17:13;;;;;;;3.33;2.80;;;;;;;;;;5002202;28;20399;-84
2021/05/04 21:19:48;;;;;;;3.63;3.33;;;;;;;;;;5003539;28;20415;-85
2021/05/04 21:27:27;;;;;;;2.83;1.87;;;;;;;;;;5028799;28;20446;-82
2021/05/04 21:29:56;;;;;;;3.70;2.40;;;;;;;;;;5019746;28;20395;-84
2021/05/04 21:32:27;;;;;;;15.40;2.37;;;;;;;;;;5036077;28;20418;-83
2021/05/04 21:35:29;;;;;;;2.73;2.40;;;;;;;;;;5027081;28;20475;-84
2021/05/04 21:37:56;;;;;;;8.17;2.03;;;;;;;;;;5019211;28;20416;-83
2021/05/04 21:40:23;;;;;;;4.67;2.40;;;;;;;;;;5002834;28;20443;-85
2021/05/04 21:42:52;;;;;;;1.70;1.50;;;;;;;;;;5002388;28;20467;-84
2021/05/04 21:45:23;;;;;;;2.30;1.73;;;;;;;;;;5019167;28;20411;-84
2021/05/04 21:47:50;;;;;;;3.13;2.00;;;;;;;;;;5001997;28;20431;-83
2021/05/04 21:50:17;;;;;;;4.77;2.13;;;;;;;;;;5003480;28;20751;-83
2021/05/04 21:52:44;;;;;;;4.40;1.80;;;;;;;;;;5018165;28;20427;-85
2021/05/04 21:55:11;;;;;;;8.07;2.03;;;;;;;;;;5003364;28;20420;-84
2021/05/04 21:57:41;;;;;;;4.80;2.50;;;;;;;;;;5011543;28;20419;-85
2021/05/04 22:00:18;;;;;;;6.43;2.43;;;;;;;;;;4999621;28;20446;-83
2021/05/04 22:02:49;;;;;;;4.27;1.47;;;;;;;;;;4985802;28;21036;-83
2021/05/04 22:05:16;;;;;;;6.30;1.77;;;;;;;;;;4995417;28;20411;-84
2021/05/04 22:07:46;;;;;;;3.20;2.27;;;;;;;;;;5002402;28;20420;-84
2021/05/04 22:10:21;;;;;;;2.93;1.50;;;;;;;;;;4985802;28;20467;-84
2021/05/04 22:12:50;;;;;;;3.90;2.23;;;;;;;;;;4987682;28;20868;-84
2021/05/04 22:16:00;;;;;;;3.37;2.07;;;;;;;;;;5003972;28;20416;-85
2021/05/04 22:37:25;;;;;;;2.33;1.80;;;;;;;;;;5002337;28;20423;-85
2021/05/04 22:42:40;;;;;;;1.60;1.50;;;;;;;;;;5003362;28;20447;-86
2021/05/04 23:17:31;;;;;;;2.80;1.73;;;;;;;;;;5009220;28;20403;-85
2021/05/04 23:19:57;;;;;;;3.03;1.50;;;;;;;;;;4997559;28;20415;-83
2021/05/04 23:22:23;;;;;;;3.57;2.30;;;;;;;;;;4999592;28;20538;-85
2021/05/04 23:24:52;;;;;;;6.37;2.30;;;;;;;;;;5014431;28;20426;-86
2021/05/04 23:27:19;;;;;;;3.30;1.70;;;;;;;;;;4987459;28;20416;-85
2021/05/04 23:29:45;;;;;;;2.60;1.40;;;;;;;;;;5005049;28;20427;-84
2021/05/04 23:32:11;;;;;;;1.63;1.53;;;;;;;;;;5008944;28;20427;-83
2021/05/04 23:34:37;;;;;;;3.60;1.73;;;;;;;;;;4995924;28;20874;-83
2021/05/04 23:37:06;;;;;;;3.50;1.60;;;;;;;;;;5015201;28;20412;-84
2021/05/04 23:39:32;;;;;;;1.93;1.70;;;;;;;;;;5016469;28;20443;-84
2021/05/04 23:41:58;;;;;;;3.40;1.20;;;;;;;;;;5017478;28;20404;-83
2021/05/04 23:44:24;;;;;;;2.90;1.77;;;;;;;;;;5017841;28;20448;-84
2021/05/04 23:46:50;;;;;;;1.50;1.40;;;;;;;;;;5000791;28;20431;-84
2021/05/04 23:49:17;;;;;;;3.50;1.50;;;;;;;;;;5001090;28;20464;-83
2021/05/04 23:51:43;;;;;;;2.10;1.40;;;;;;;;;;5016826;28;20447;-84
2021/05/04 23:54:09;;;;;;;2.30;2.10;;;;;;;;;;5016698;28;20432;-84
2021/05/04 23:56:38;;;;;;;3.47;1.60;;;;;;;;;;5012827;28;20497;-84
2021/05/04 23:59:04;;;;;;;2.37;1.73;;;;;;;;;;5001450;28;20766;-85
